sensor_id;sensor_type;location;lat;lon;timestamp;pressure;altitude;pressure_sealevel;temperature;humidity
7022;BME280;3552;42.664;23.406;2022-08-01T00:01:18;63013.81;;;20.64;100.00
7022;BME280;3552;42.664;23.406;2022-08-01T00:03:44;63007.34;;;20.58;100.00
7022;BME280;3552;42.664;23.406;2022-08-01T00:06:12;62954.31;;;20.09;100.00
7022;BME280;3552;42.664;23.406;2022-08-01T00:08:38;62944.81;;;20.05;100.00
7022;BME280;3552;42.664;23.406;2022-08-01T00:11:08;62936.47;;;19.92;100.00
7022;BME280;3552;42.664;23.406;2022-08-01T00:13:35;62899.84;;;19.61;100.00
7022;BME280;3552;42.664;23.406;2022-08-01T00:16:03;62857.03;;;19.18;100.00
7022;BME280;3552;42.664;23.406;2022-08-01T00:18:29;62836.19;;;19.04;100.00
7022;BME280;3552;42.664;23.406;2022-08-01T00:20:56;62849.69;;;19.16;100.00
7022;BME280;3552;42.664;23.406;2022-08-01T00:23:24;62787.91;;;18.54;100.00
7022;BME280;3552;42.664;23.406;2022-08-01T00:25:52;62803.03;;;18.68;100.00
7022;BME280;3552;42.664;23.406;2022-08-01T00:28:21;62757.50;;;18.33;100.00
7022;BME280;3552;42.664;23.406;2022-08-01T00:30:48;62738.78;;;18.08;100.00
7022;BME280;3552;42.664;23.406;2022-08-01T00:33:15;62766.44;;;18.36;100.00
7022;BME280;3552;42.664;23.406;2022-08-01T00:35:42;62766.44;;;18.36;100.00
7022;BME280;3552;42.664;23.406;2022-08-01T00:38:09;62769.56;;;18.37;100.00
7022;BME280;3552;42.664;23.406;2022-08-01T00:40:37;62780.88;;;18.47;100.00
7022;BME280;3552;42.664;23.406;2022-08-01T00:43:04;62754.13;;;18.27;100.00
7022;BME280;3552;42.664;23.406;2022-08-01T00:45:33;62780.38;;;18.47;100.00
7022;BME280;3552;42.664;23.406;2022-08-01T00:48:00;62768.03;;;18.38;100.00
7022;BME280;3552;42.664;23.406;2022-08-01T00:50:27;62774.53;;;18.44;100.00
7022;BME280;3552;42.664;23.406;2022-08-01T00:52:54;62779.41;;;18.48;100.00
7022;BME280;3552;42.664;23.406;2022-08-01T00:55:22;62778.22;;;18.45;100.00
7022;BME280;3552;42.664;23.406;2022-08-01T00:57:50;62780.38;;;18.47;100.00
7022;BME280;3552;42.664;23.406;2022-08-01T01:00:17;62767.63;;;18.40;100.00
7022;BME280;3552;42.664;23.406;2022-08-01T01:02:48;62782.53;;;18.49;100.00
7022;BME280;3552;42.664;23.406;2022-08-01T01:05:15;62743.88;;;18.18;100.00
7022;BME280;3552;42.664;23.406;2022-08-01T01:07:48;62746.56;;;18.20;100.00
7022;BME280;3552;42.664;23.406;2022-08-01T01:10:22;62748.81;;;18.13;100.00
7022;BME280;3552;42.664;23.406;2022-08-01T01:12:54;62803.28;;;18.73;100.00
7022;BME280;3552;42.664;23.406;2022-08-01T01:15:28;62810.81;;;18.80;100.00
7022;BME280;3552;42.664;23.406;2022-08-01T01:18:03;62803.03;;;18.68;100.00
7022;BME280;3552;42.664;23.406;2022-08-01T01:20:37;62828.41;;;18.92;100.00
7022;BME280;3552;42.664;23.406;2022-08-01T01:23:24;62808.66;;;18.78;100.00
7022;BME280;3552;42.664;23.406;2022-08-01T01:26:23;62798.41;;;18.69;100.00
7022;BME280;3552;42.664;23.406;2022-08-01T01:29:05;62805.97;;;18.76;100.00
7022;BME280;3552;42.664;23.406;2022-08-01T01:31:40;62747.97;;;18.17;100.00
7022;BME280;3552;42.664;23.406;2022-08-01T01:34:09;62786.41;;;18.55;100.00
7022;BME280;3552;42.664;23.406;2022-08-01T01:36:38;62677.81;;;17.51;100.00
7022;BME280;3552;42.664;23.406;2022-08-01T01:39:07;62777.66;;;18.44;100.00
7022;BME280;3552;42.664;23.406;2022-08-01T01:41:37;62698.31;;;17.70;100.00
7022;BME280;3552;42.664;23.406;2022-08-01T01:44:08;62713.13;;;17.89;100.00
7022;BME280;3552;42.664;23.406;2022-08-01T01:46:37;62712.59;;;17.89;100.00
7022;BME280;3552;42.664;23.406;2022-08-01T01:49:07;62743.88;;;18.18;100.00
7022;BME280;3552;42.664;23.406;2022-08-01T01:51:38;62756.81;;;18.30;100.00
7022;BME280;3552;42.664;23.406;2022-08-01T01:54:10;62761.69;;;18.34;100.00
7022;BME280;3552;42.664;23.406;2022-08-01T01:56:39;62758.00;;;18.33;100.00
7022;BME280;3552;42.664;23.406;2022-08-01T01:59:18;62751.84;;;18.23;100.00
7022;BME280;3552;42.664;23.406;2022-08-01T02:01:47;62758.75;;;18.27;100.00
7022;BME280;3552;42.664;23.406;2022-08-01T02:04:16;62755.63;;;18.26;100.00
7022;BME280;3552;42.664;23.406;2022-08-01T02:06:46;62755.50;;;18.24;100.00
7022;BME280;3552;42.664;23.406;2022-08-01T02:09:15;62749.69;;;18.21;100.00
7022;BME280;3552;42.664;23.406;2022-08-01T02:11:44;62742.25;;;18.16;100.00
7022;BME280;3552;42.664;23.406;2022-08-01T02:14:13;62740.66;;;18.15;100.00
7022;BME280;3552;42.664;23.406;2022-08-01T02:16:45;62754.97;;;18.23;100.00
7022;BME280;3552;42.664;23.406;2022-08-01T02:19:13;62761.56;;;18.32;100.00
7022;BME280;3552;42.664;23.406;2022-08-01T02:21:44;62737.94;;;18.12;100.00
7022;BME280;3552;42.664;23.406;2022-08-01T02:24:18;62760.38;;;18.28;100.00
7022;BME280;3552;42.664;23.406;2022-08-01T02:26:51;62756.19;;;18.27;100.00
7022;BME280;3552;42.664;23.406;2022-08-01T02:29:22;62745.38;;;18.17;100.00
7022;BME280;3552;42.664;23.406;2022-08-01T02:31:53;62737.41;;;18.12;100.00
7022;BME280;3552;42.664;23.406;2022-08-01T02:34:21;62726.59;;;18.02;100.00
7022;BME280;3552;42.664;23.406;2022-08-01T02:36:50;62736.19;;;18.08;100.00
7022;BME280;3552;42.664;23.406;2022-08-01T02:39:22;62717.84;;;17.91;100.00
7022;BME280;3552;42.664;23.406;2022-08-01T02:41:57;62731.88;;;18.04;100.00
7022;BME280;3552;42.664;23.406;2022-08-01T02:44:30;62713.13;;;17.89;100.00
7022;BME280;3552;42.664;23.406;2022-08-01T02:47:00;62689.94;;;17.67;100.00
7022;BME280;3552;42.664;23.406;2022-08-01T02:49:31;62681.28;;;17.59;100.00
7022;BME280;3552;42.664;23.406;2022-08-01T02:52:01;62667.25;;;17.46;100.00
7022;BME280;3552;42.664;23.406;2022-08-01T02:54:31;62672.53;;;17.49;100.00
7022;BME280;3552;42.664;23.406;2022-08-01T02:57:00;62643.00;;;17.24;100.00
7022;BME280;3552;42.664;23.406;2022-08-01T02:59:29;62667.25;;;17.46;100.00
7022;BME280;3552;42.664;23.406;2022-08-01T03:02:00;62576.72;;;16.62;100.00
7022;BME280;3552;42.664;23.406;2022-08-01T03:04:33;62698.31;;;17.70;100.00
7022;BME280;3552;42.664;23.406;2022-08-01T03:07:04;62678.06;;;17.56;100.00
7022;BME280;3552;42.664;23.406;2022-08-01T03:09:36;62682.38;;;17.60;100.00
7022;BME280;3552;42.664;23.406;2022-08-01T03:12:07;62650.84;;;17.26;100.00
7022;BME280;3552;42.664;23.406;2022-08-01T03:14:39;62675.25;;;17.51;100.00
7022;BME280;3552;42.664;23.406;2022-08-01T03:17:10;62675.91;;;17.54;100.00
7022;BME280;3552;42.664;23.406;2022-08-01T03:19:38;62632.44;;;17.19;100.00
7022;BME280;3552;42.664;23.406;2022-08-01T03:22:07;62672.66;;;17.51;100.00
7022;BME280;3552;42.664;23.406;2022-08-01T03:24:35;62670.50;;;17.49;100.00
7022;BME280;3552;42.664;23.406;2022-08-01T03:27:06;62646.81;;;17.18;100.00
7022;BME280;3552;42.664;23.406;2022-08-01T03:29:35;62637.72;;;17.21;100.00
7022;BME280;3552;42.664;23.406;2022-08-01T03:32:03;62653.00;;;17.28;100.00
7022;BME280;3552;42.664;23.406;2022-08-01T03:34:32;62601.50;;;16.85;100.00
7022;BME280;3552;42.664;23.406;2022-08-01T03:37:03;62675.66;;;17.49;100.00
7022;BME280;3552;42.664;23.406;2022-08-01T03:39:36;62603.47;;;16.94;100.00
7022;BME280;3552;42.664;23.406;2022-08-01T03:42:09;62609.03;;;16.92;100.00
7022;BME280;3552;42.664;23.406;2022-08-01T03:44:40;62643.97;;;17.22;100.00
7022;BME280;3552;42.664;23.406;2022-08-01T03:47:09;62641.50;;;17.25;100.00
7022;BME280;3552;42.664;23.406;2022-08-01T03:49:42;62653.22;;;17.33;100.00
7022;BME280;3552;42.664;23.406;2022-08-01T03:52:12;62660.66;;;17.38;100.00
7022;BME280;3552;42.664;23.406;2022-08-01T03:54:43;62642.44;;;17.23;100.00
7022;BME280;3552;42.664;23.406;2022-08-01T03:57:13;62655.94;;;17.36;100.00
7022;BME280;3552;42.664;23.406;2022-08-01T03:59:42;62588.31;;;16.68;100.00
7022;BME280;3552;42.664;23.406;2022-08-01T04:02:14;62655.41;;;17.35;100.00
7022;BME280;3552;42.664;23.406;2022-08-01T04:04:45;62664.03;;;17.43;100.00
7022;BME280;3552;42.664;23.406;2022-08-01T04:07:22;62673.09;;;17.49;100.00
7022;BME280;3552;42.664;23.406;2022-08-01T04:09:49;62687.53;;;17.60;100.00
7022;BME280;3552;42.664;23.406;2022-08-01T04:12:17;62688.84;;;17.66;100.00
7022;BME280;3552;42.664;23.406;2022-08-01T04:14:44;62687.78;;;17.65;100.00
7022;BME280;3552;42.664;23.406;2022-08-01T04:17:13;62633.19;;;17.12;100.00
7022;BME280;3552;42.664;23.406;2022-08-01T04:19:41;62712.03;;;17.88;100.00
7022;BME280;3552;42.664;23.406;2022-08-01T04:22:11;62728.13;;;18.01;100.00
7022;BME280;3552;42.664;23.406;2022-08-01T04:24:40;62742.13;;;18.14;100.00
7022;BME280;3552;42.664;23.406;2022-08-01T04:27:11;62744.97;;;18.19;100.00
7022;BME280;3552;42.664;23.406;2022-08-01T04:29:40;62758.44;;;18.31;100.00
7022;BME280;3552;42.664;23.406;2022-08-01T04:32:12;62783.72;;;18.52;100.00
7022;BME280;3552;42.664;23.406;2022-08-01T04:34:41;62779.53;;;18.51;100.00
7022;BME280;3552;42.664;23.406;2022-08-01T04:37:15;62799.38;;;18.67;100.00
7022;BME280;3552;42.664;23.406;2022-08-01T04:39:44;62801.63;;;18.72;100.00
7022;BME280;3552;42.664;23.406;2022-08-01T04:42:14;62827.88;;;18.91;100.00
7022;BME280;3552;42.664;23.406;2022-08-01T04:44:44;62847.00;;;19.14;100.00
7022;BME280;3552;42.664;23.406;2022-08-01T04:47:12;62830.25;;;18.98;100.00
7022;BME280;3552;42.664;23.406;2022-08-01T04:49:40;62905.91;;;19.69;100.00
7022;BME280;3552;42.664;23.406;2022-08-01T04:52:08;62896.63;;;19.58;100.00
7022;BME280;3552;42.664;23.406;2022-08-01T04:54:37;62915.66;;;19.78;100.00
7022;BME280;3552;42.664;23.406;2022-08-01T04:57:06;62935.94;;;19.92;100.00
7022;BME280;3552;42.664;23.406;2022-08-01T04:59:35;62935.75;;;19.99;100.00
7022;BME280;3552;42.664;23.406;2022-08-01T05:02:13;62933.78;;;19.90;100.00
7022;BME280;3552;42.664;23.406;2022-08-01T05:04:41;62972.72;;;20.26;100.00
7022;BME280;3552;42.664;23.406;2022-08-01T05:07:09;63008.66;;;20.64;100.00
7022;BME280;3552;42.664;23.406;2022-08-01T05:09:39;63005.63;;;20.66;100.00
7022;BME280;3552;42.664;23.406;2022-08-01T05:12:09;63020.31;;;20.70;100.00
7022;BME280;3552;42.664;23.406;2022-08-01T05:14:36;63032.44;;;20.86;100.00
7022;BME280;3552;42.664;23.406;2022-08-01T05:17:06;63072.91;;;21.22;100.00
7022;BME280;3552;42.664;23.406;2022-08-01T05:19:34;63082.88;;;21.36;100.00
7022;BME280;3552;42.664;23.406;2022-08-01T05:22:01;63109.97;;;21.61;100.00
7022;BME280;3552;42.664;23.406;2022-08-01T05:24:30;63123.38;;;21.71;100.00
7022;BME280;3552;42.664;23.406;2022-08-01T05:26:59;63108.00;;;21.52;100.00
7022;BME280;3552;42.664;23.406;2022-08-01T05:29:28;63118.81;;;21.62;100.00
7022;BME280;3552;42.664;23.406;2022-08-01T05:32:00;63142.91;;;21.89;100.00
7022;BME280;3552;42.664;23.406;2022-08-01T05:34:28;63181.88;;;22.25;100.00
7022;BME280;3552;42.664;23.406;2022-08-01T05:36:55;63192.72;;;22.35;100.00
7022;BME280;3552;42.664;23.406;2022-08-01T05:39:23;63185.13;;;22.28;100.00
7022;BME280;3552;42.664;23.406;2022-08-01T05:41:53;63226.84;;;22.67;100.00
7022;BME280;3552;42.664;23.406;2022-08-01T05:44:24;63245.59;;;22.80;100.00
7022;BME280;3552;42.664;23.406;2022-08-01T05:46:52;63254.91;;;22.91;100.00
7022;BME280;3552;42.664;23.406;2022-08-01T05:49:19;63256.09;;;22.94;100.00
7022;BME280;3552;42.664;23.406;2022-08-01T05:51:47;63294.59;;;23.30;100.00
7022;BME280;3552;42.664;23.406;2022-08-01T05:54:15;63291.59;;;23.32;100.00
7022;BME280;3552;42.664;23.406;2022-08-01T05:56:46;63281.59;;;23.18;100.00
7022;BME280;3552;42.664;23.406;2022-08-01T05:59:30;63301.13;;;23.36;100.00
7022;BME280;3552;42.664;23.406;2022-08-01T06:02:03;63323.91;;;23.57;100.00
7022;BME280;3552;42.664;23.406;2022-08-01T06:04:33;63341.03;;;23.68;100.00
7022;BME280;3552;42.664;23.406;2022-08-01T06:07:01;63312.50;;;23.46;100.00
7022;BME280;3552;42.664;23.406;2022-08-01T06:09:28;63266.41;;;23.04;100.00
7022;BME280;3552;42.664;23.406;2022-08-01T06:11:58;63312.50;;;23.46;100.00
7022;BME280;3552;42.664;23.406;2022-08-01T06:14:25;63344.28;;;23.71;100.00
7022;BME280;3552;42.664;23.406;2022-08-01T06:16:58;63339.94;;;23.67;100.00
7022;BME280;3552;42.664;23.406;2022-08-01T06:19:25;63300.59;;;23.35;100.00
7022;BME280;3552;42.664;23.406;2022-08-01T06:21:56;63384.66;;;24.13;100.00
7022;BME280;3552;42.664;23.406;2022-08-01T06:24:24;63364.56;;;23.95;100.00
7022;BME280;3552;42.664;23.406;2022-08-01T06:26:53;63390.53;;;24.16;100.00
7022;BME280;3552;42.664;23.406;2022-08-01T06:29:22;63366.22;;;23.96;100.00
7022;BME280;3552;42.664;23.406;2022-08-01T06:31:55;63392.38;;;24.23;100.00
7022;BME280;3552;42.664;23.406;2022-08-01T06:34:22;63407.56;;;24.37;100.00
7022;BME280;3552;42.664;23.406;2022-08-01T06:36:49;63322.28;;;23.56;100.00
7022;BME280;3552;42.664;23.406;2022-08-01T06:39:18;63399.31;;;24.27;100.00
7022;BME280;3552;42.664;23.406;2022-08-01T06:41:45;63325.00;;;23.58;100.00
7022;BME280;3552;42.664;23.406;2022-08-01T06:44:13;63419.28;;;24.43;100.00
7022;BME280;3552;42.664;23.406;2022-08-01T06:46:40;63415.03;;;24.42;100.00
7022;BME280;3552;42.664;23.406;2022-08-01T06:49:09;63384.66;;;24.13;100.00
7022;BME280;3552;42.664;23.406;2022-08-01T06:51:36;63361.31;;;23.92;100.00
7022;BME280;3552;42.664;23.406;2022-08-01T06:54:03;63358.59;;;23.89;100.00
7022;BME280;3552;42.664;23.406;2022-08-01T06:56:30;63383.47;;;24.10;100.00
7022;BME280;3552;42.664;23.406;2022-08-01T06:58:59;63418.31;;;24.45;100.00
7022;BME280;3552;42.664;23.406;2022-08-01T07:01:27;63389.56;;;24.18;100.00
7022;BME280;3552;42.664;23.406;2022-08-01T07:03:55;63434.47;;;24.57;100.00
7022;BME280;3552;42.664;23.406;2022-08-01T07:06:24;63463.94;;;24.87;100.00
7022;BME280;3552;42.664;23.406;2022-08-01T07:08:52;63460.22;;;24.86;100.00
7022;BME280;3552;42.664;23.406;2022-08-01T07:11:19;63462.63;;;24.81;100.00
7022;BME280;3552;42.664;23.406;2022-08-01T07:13:46;63405.06;;;24.40;100.00
7022;BME280;3552;42.664;23.406;2022-08-01T07:16:13;63290.28;;;23.26;100.00
7022;BME280;3552;42.664;23.406;2022-08-01T07:18:40;63386.19;;;24.12;100.00
7022;BME280;3552;42.664;23.406;2022-08-01T07:21:15;63404.75;;;24.32;100.00
7022;BME280;3552;42.664;23.406;2022-08-01T07:23:43;63410.94;;;24.43;100.00
7022;BME280;3552;42.664;23.406;2022-08-01T07:26:10;63465.44;;;24.86;100.00
7022;BME280;3552;42.664;23.406;2022-08-01T07:28:38;63470.97;;;24.93;100.00
7022;BME280;3552;42.664;23.406;2022-08-01T07:31:05;63475.31;;;24.97;100.00
7022;BME280;3552;42.664;23.406;2022-08-01T07:33:32;63476.97;;;24.99;100.00
7022;BME280;3552;42.664;23.406;2022-08-01T07:36:01;63488.34;;;25.09;100.00
7022;BME280;3552;42.664;23.406;2022-08-01T07:38:29;63518.44;;;25.42;100.00
7022;BME280;3552;42.664;23.406;2022-08-01T07:40:57;63508.66;;;25.33;100.00
7022;BME280;3552;42.664;23.406;2022-08-01T07:43:24;63543.22;;;25.60;100.00
7022;BME280;3552;42.664;23.406;2022-08-01T07:45:52;63494.84;;;25.15;100.00
7022;BME280;3552;42.664;23.406;2022-08-01T07:48:20;63532.34;;;25.50;100.00
7022;BME280;3552;42.664;23.406;2022-08-01T07:50:49;63529.09;;;25.47;100.00
7022;BME280;3552;42.664;23.406;2022-08-01T07:53:17;63586.03;;;25.98;100.00
7022;BME280;3552;42.664;23.406;2022-08-01T07:55:44;63493.22;;;25.14;100.00
7022;BME280;3552;42.664;23.406;2022-08-01T07:58:13;63579.63;;;25.94;100.00
7022;BME280;3552;42.664;23.406;2022-08-01T08:00:40;63581.25;;;25.95;100.00
7022;BME280;3552;42.664;23.406;2022-08-01T08:03:08;63634.53;;;26.45;100.00
7022;BME280;3552;42.664;23.406;2022-08-01T08:05:35;63635.06;;;26.45;100.00
7022;BME280;3552;42.664;23.406;2022-08-01T08:08:04;63609.00;;;26.21;100.00
7022;BME280;3552;42.664;23.406;2022-08-01T08:10:31;63535.19;;;25.55;100.00
7022;BME280;3552;42.664;23.406;2022-08-01T08:13:01;63580.59;;;25.92;100.00
7022;BME280;3552;42.664;23.406;2022-08-01T08:15:31;63605.19;;;26.18;100.00
7022;BME280;3552;42.664;23.406;2022-08-01T08:17:59;63632.34;;;26.43;100.00
7022;BME280;3552;42.664;23.406;2022-08-01T08:20:26;63614.97;;;26.27;100.00
7022;BME280;3552;42.664;23.406;2022-08-01T08:22:55;63569.28;;;25.84;100.00
7022;BME280;3552;42.664;23.406;2022-08-01T08:25:24;63579.09;;;25.93;100.00
7022;BME280;3552;42.664;23.406;2022-08-01T08:27:53;63540.06;;;25.60;100.00
7022;BME280;3552;42.664;23.406;2022-08-01T08:30:20;63542.16;;;25.59;100.00
7022;BME280;3552;42.664;23.406;2022-08-01T08:32:49;63527.81;;;25.41;100.00
7022;BME280;3552;42.664;23.406;2022-08-01T08:35:16;63513.88;;;25.33;100.00
7022;BME280;3552;42.664;23.406;2022-08-01T08:37:43;63552.47;;;25.69;100.00
7022;BME280;3552;42.664;23.406;2022-08-01T08:40:12;63530.63;;;25.46;100.00
7022;BME280;3552;42.664;23.406;2022-08-01T08:42:40;63608.34;;;26.18;100.00
7022;BME280;3552;42.664;23.406;2022-08-01T08:45:09;63611.72;;;26.24;100.00
7022;BME280;3552;42.664;23.406;2022-08-01T08:47:36;63597.13;;;26.13;100.00
7022;BME280;3552;42.664;23.406;2022-08-01T08:50:06;63611.72;;;26.24;100.00
7022;BME280;3552;42.664;23.406;2022-08-01T08:52:35;63580.16;;;25.94;100.00
7022;BME280;3552;42.664;23.406;2022-08-01T08:55:07;63587.22;;;26.01;100.00
7022;BME280;3552;42.664;23.406;2022-08-01T08:57:35;63638.44;;;26.51;100.00
7022;BME280;3552;42.664;23.406;2022-08-01T09:00:07;63703.72;;;27.11;100.00
7022;BME280;3552;42.664;23.406;2022-08-01T09:02:35;63720.38;;;27.22;100.00
7022;BME280;3552;42.664;23.406;2022-08-01T09:05:02;63729.63;;;27.30;100.00
7022;BME280;3552;42.664;23.406;2022-08-01T09:07:31;63663.91;;;26.72;100.00
7022;BME280;3552;42.664;23.406;2022-08-01T09:10:00;63618.22;;;26.30;100.00
7022;BME280;3552;42.664;23.406;2022-08-01T09:12:27;63605.19;;;26.18;100.00
7022;BME280;3552;42.664;23.406;2022-08-01T09:14:54;63623.88;;;26.40;100.00
7022;BME280;3552;42.664;23.406;2022-08-01T09:17:22;63649.75;;;26.59;100.00
7022;BME280;3552;42.664;23.406;2022-08-01T09:19:51;63690.66;;;26.99;100.00
7022;BME280;3552;42.664;23.406;2022-08-01T09:22:21;63713.94;;;27.18;100.00
7022;BME280;3552;42.664;23.406;2022-08-01T09:25:01;63722.09;;;27.26;100.00
7022;BME280;3552;42.664;23.406;2022-08-01T09:27:29;63719.38;;;27.23;100.00
7022;BME280;3552;42.664;23.406;2022-08-01T09:30:09;63668.28;;;26.76;100.00
7022;BME280;3552;42.664;23.406;2022-08-01T09:32:36;63647.03;;;26.56;100.00
7022;BME280;3552;42.664;23.406;2022-08-01T09:35:22;63627.56;;;26.41;100.00
7022;BME280;3552;42.664;23.406;2022-08-01T09:37:49;63648.75;;;26.60;100.00
7022;BME280;3552;42.664;23.406;2022-08-01T09:40:18;63639.44;;;26.49;100.00
7022;BME280;3552;42.664;23.406;2022-08-01T09:42:47;63683.50;;;26.90;100.00
7022;BME280;3552;42.664;23.406;2022-08-01T09:45:31;63579.63;;;25.94;100.00
7022;BME280;3552;42.664;23.406;2022-08-01T09:48:06;63670.44;;;26.78;100.00
7022;BME280;3552;42.664;23.406;2022-08-01T09:50:39;63702.09;;;27.10;100.00
7022;BME280;3552;42.664;23.406;2022-08-01T09:53:07;63722.66;;;27.26;100.00
7022;BME280;3552;42.664;23.406;2022-08-01T09:55:37;63760.19;;;27.61;100.00
7022;BME280;3552;42.664;23.406;2022-08-01T09:58:05;63748.25;;;27.50;100.00
7022;BME280;3552;42.664;23.406;2022-08-01T10:00:33;63776.00;;;27.76;100.00
7022;BME280;3552;42.664;23.406;2022-08-01T10:03:19;63797.13;;;27.93;100.00
7022;BME280;3552;42.664;23.406;2022-08-01T10:05:46;63767.28;;;27.68;100.00
7022;BME280;3552;42.664;23.406;2022-08-01T10:08:13;63838.59;;;28.33;100.00
7022;BME280;3552;42.664;23.406;2022-08-01T10:11:07;63841.31;;;28.36;100.00
7022;BME280;3552;42.664;23.406;2022-08-01T10:13:34;63863.13;;;28.56;100.00
7022;BME280;3552;42.664;23.406;2022-08-01T10:16:03;63920.22;;;29.06;100.00
7022;BME280;3552;42.664;23.406;2022-08-01T10:18:33;63948.78;;;29.38;100.00
7022;BME280;3552;42.664;23.406;2022-08-01T10:21:02;63907.25;;;28.97;100.00
7022;BME280;3552;42.664;23.406;2022-08-01T10:23:33;63812.28;;;28.04;100.00
7022;BME280;3552;42.664;23.406;2022-08-01T10:26:07;63778.72;;;27.78;100.00
7022;BME280;3552;42.664;23.406;2022-08-01T10:28:36;63793.94;;;27.92;100.00
7022;BME280;3552;42.664;23.406;2022-08-01T10:31:04;63837.06;;;28.34;100.00
7022;BME280;3552;42.664;23.406;2022-08-01T10:33:31;63791.22;;;27.90;100.00
7022;BME280;3552;42.664;23.406;2022-08-01T10:36:01;63814.56;;;28.09;100.00
7022;BME280;3552;42.664;23.406;2022-08-01T10:38:29;63880.56;;;28.72;100.00
7022;BME280;3552;42.664;23.406;2022-08-01T10:40:57;63833.72;;;28.29;100.00
7022;BME280;3552;42.664;23.406;2022-08-01T10:43:25;63916.06;;;29.07;100.00
7022;BME280;3552;42.664;23.406;2022-08-01T10:45:53;63877.28;;;28.69;100.00
7022;BME280;3552;42.664;23.406;2022-08-01T10:48:25;63771.09;;;27.71;100.00
7022;BME280;3552;42.664;23.406;2022-08-01T10:50:55;63813.00;;;28.10;100.00
7022;BME280;3552;42.664;23.406;2022-08-01T10:53:25;63712.84;;;27.17;100.00
7022;BME280;3552;42.664;23.406;2022-08-01T10:55:58;63733.00;;;27.36;100.00
7022;BME280;3552;42.664;23.406;2022-08-01T10:58:28;63732.47;;;27.35;100.00
7022;BME280;3552;42.664;23.406;2022-08-01T11:01:18;63771.63;;;27.72;100.00
7022;BME280;3552;42.664;23.406;2022-08-01T11:04:06;63848.41;;;28.42;100.00
7022;BME280;3552;42.664;23.406;2022-08-01T11:06:40;63841.31;;;28.36;100.00
7022;BME280;3552;42.664;23.406;2022-08-01T11:09:30;63919.78;;;29.08;100.00
7022;BME280;3552;42.664;23.406;2022-08-01T11:12:00;63927.00;;;29.17;100.00
7022;BME280;3552;42.664;23.406;2022-08-01T11:14:31;63911.28;;;29.05;100.00
7022;BME280;3552;42.664;23.406;2022-08-01T11:17:29;63973.22;;;29.58;100.00
7022;BME280;3552;42.664;23.406;2022-08-01T11:20:07;63964.94;;;29.48;100.00
7022;BME280;3552;42.664;23.406;2022-08-01T11:26:11;63955.41;;;29.46;100.00
7022;BME280;3552;42.664;23.406;2022-08-01T11:28:39;64000.47;;;29.83;100.00
7022;BME280;3552;42.664;23.406;2022-08-01T11:31:30;63974.28;;;29.59;100.00
7022;BME280;3552;42.664;23.406;2022-08-01T11:33:58;63999.28;;;29.79;100.00
7022;BME280;3552;42.664;23.406;2022-08-01T11:36:26;64001.56;;;29.84;100.00
7022;BME280;3552;42.664;23.406;2022-08-01T11:41:48;63958.47;;;29.44;100.00
7022;BME280;3552;42.664;23.406;2022-08-01T11:44:17;63925.88;;;29.16;100.00
7022;BME280;3552;42.664;23.406;2022-08-01T11:47:08;63961.84;;;29.50;100.00
7022;BME280;3552;42.664;23.406;2022-08-01T11:49:48;63988.56;;;29.74;100.00
7022;BME280;3552;42.664;23.406;2022-08-01T11:52:24;63998.50;;;29.86;100.00
7022;BME280;3552;42.664;23.406;2022-08-01T11:54:55;64003.75;;;29.86;100.00
7022;BME280;3552;42.664;23.406;2022-08-01T11:57:24;64032.72;;;30.15;100.00
7022;BME280;3552;42.664;23.406;2022-08-01T11:59:53;64016.84;;;29.98;100.00
7022;BME280;3552;42.664;23.406;2022-08-01T12:02:26;63991.75;;;29.75;100.00
7022;BME280;3552;42.664;23.406;2022-08-01T12:04:58;63974.28;;;29.59;100.00
7022;BME280;3552;42.664;23.406;2022-08-01T12:07:27;63951.41;;;29.38;100.00
7022;BME280;3552;42.664;23.406;2022-08-01T12:10:03;63991.75;;;29.75;100.00
7022;BME280;3552;42.664;23.406;2022-08-01T12:12:31;64017.91;;;29.99;100.00
7022;BME280;3552;42.664;23.406;2022-08-01T12:15:00;63964.13;;;29.54;100.00
7022;BME280;3552;42.664;23.406;2022-08-01T12:17:30;63857.34;;;28.56;100.00
7022;BME280;3552;42.664;23.406;2022-08-01T12:19:58;63998.09;;;29.76;100.00
7022;BME280;3552;42.664;23.406;2022-08-01T12:22:25;64043.00;;;30.22;100.00
7022;BME280;3552;42.664;23.406;2022-08-01T12:24:52;64002.47;;;29.80;100.00
7022;BME280;3552;42.664;23.406;2022-08-01T12:27:27;63952.94;;;29.37;100.00
7022;BME280;3552;42.664;23.406;2022-08-01T12:29:55;63967.75;;;29.53;100.00
7022;BME280;3552;42.664;23.406;2022-08-01T12:32:25;64015.94;;;30.02;100.00
7022;BME280;3552;42.664;23.406;2022-08-01T12:34:55;63973.84;;;29.61;100.00
7022;BME280;3552;42.664;23.406;2022-08-01T12:37:23;63927.00;;;29.17;100.00
7022;BME280;3552;42.664;23.406;2022-08-01T12:39:51;63930.91;;;29.24;100.00
7022;BME280;3552;42.664;23.406;2022-08-01T12:42:21;63941.59;;;29.29;100.00
7022;BME280;3552;42.664;23.406;2022-08-01T12:44:50;63937.34;;;29.27;100.00
7022;BME280;3552;42.664;23.406;2022-08-01T12:47:18;63938.34;;;29.26;100.00
7022;BME280;3552;42.664;23.406;2022-08-01T12:49:47;63934.72;;;29.27;100.00
7022;BME280;3552;42.664;23.406;2022-08-01T12:52:17;63981.94;;;29.66;100.00
7022;BME280;3552;42.664;23.406;2022-08-01T12:55:04;64018.56;;;30.02;100.00
7022;BME280;3552;42.664;23.406;2022-08-01T12:57:32;64074.09;;;30.51;100.00
7022;BME280;3552;42.664;23.406;2022-08-01T13:00:10;64056.13;;;30.34;96.84
7022;BME280;3552;42.664;23.406;2022-08-01T13:02:39;64018.56;;;30.02;99.59
7022;BME280;3552;42.664;23.406;2022-08-01T13:05:08;64056.13;;;30.34;100.00
7022;BME280;3552;42.664;23.406;2022-08-01T13:07:47;64057.84;;;30.38;100.00
7022;BME280;3552;42.664;23.406;2022-08-01T13:10:24;64038.19;;;30.20;100.00
7022;BME280;3552;42.664;23.406;2022-08-01T13:12:54;64071.91;;;30.49;100.00
7022;BME280;3552;42.664;23.406;2022-08-01T13:15:28;64115.22;;;30.94;100.00
7022;BME280;3552;42.664;23.406;2022-08-01T13:17:59;64111.22;;;30.85;92.96
7022;BME280;3552;42.664;23.406;2022-08-01T13:20:29;64210.56;;;31.77;90.44
7022;BME280;3552;42.664;23.406;2022-08-01T13:23:13;64181.75;;;31.52;89.12